Details From KMSY - Louis Armstrong New Orleans Intl
To SVVA - Arturo Michelena Intl
Flight Number -
Tags Generated
Created
Modified
Stats Distance 1,726 nm / 3,197 km
Max Altitude 0 ft / 0 m
Waypoints 4
Social Downloads 1
Likes 0
Share VATSIM

Download

Looking for another format? Having issues loading an existing format? Contact us
Advertisement - Login to hide

Notes

Generated

Route

KMSY BEMOL VLC SVVA

ID Type Via Altitude Latitude Longitude Leg Dist Tot Dist Heading (true) Name
O KMSY APT - 0 ft / 0 m 29.99177˚ -90.25724˚ - 0 nm - Louis Armstrong New Orleans Intl
BEMOL FIX - 0 ft / 0 m 19.34056˚ -77.09333˚ 960 nm 960 nm 129° / 134° -
VLC NDB - 0 ft / 0 m 10.15203˚ -67.94236˚ 765 nm 1726 nm 135° / 137° VALENCIA NDB
O SVVA APT - 0 ft / 0 m 10.15040˚ -67.94203˚ 0 nm 1726 nm 169° / 169° -

Altitude Profile

Advertisement - Login to hide

Weather


0- 5 10 15 20 25 30 35+ Temperature / ° C

Clouds and Precipitation
Forecast for 2017-12-18 18:00 UTC. Updated 5 minutes ago

Ground ~20,000 ft ~40,000 ft Winds

KMSY

Details ICAO KMSY (MSY)
Name Louis Armstrong New Orleans Intl
Region United States
Timezone America/Chicago (UTC-6.0)
Stats Elevation 3 ft / 1 m (AMSL)
Location 29.993349° -90.257406°
Runways 2
Magnetic Variation 0.733° W

METAR

KMSY 181457Z 32008KT 1/4SM FG VV002 19/19 A3019 RMK AO2 LTG DSNT W T01940194 RVRNO

Decode

TAF

KMSY 181453Z 1815/1918 07003KT 3/4SM BR OVC002 FM181600 08004KT 4SM BR VCSH OVC007 FM181900 04004KT P6SM VCSH BKN010 OVC030 TEMPO 1821/1824 1SM SHRA OVC008 FM190200 VRB03KT 3SM BR BKN008 FM190800 VRB03KT 1/2SM FG OVC003 FM191500 VRB03KT 3SM BR BKN008 BKN018

Decode

Departure Runways

ID Width Length Bearing (true) Bearing (mag) Surface Threshold Offset Overrun Length
01 150 ft / 46 m 7,021 ft / 2,140 m 15.41° 16.14° Concrete 0 ft / 0 m 600 ft / 183 m
10 150 ft / 46 m 10,090 ft / 3,075 m 105.55° 106.28° Concrete 0 ft / 0 m 400 ft / 122 m
19 150 ft / 46 m 7,021 ft / 2,140 m 195.41° 196.14° Concrete 0 ft / 0 m 600 ft / 183 m
28 150 ft / 46 m 10,090 ft / 3,075 m 285.57° 286.30° Concrete 305 ft / 93 m 249 ft / 76 m

SVVA

Details ICAO SVVA (VLN)
Name ARTURO MICHELENA INTL
Region Venezuela
Timezone America/Caracas (UTC-4.0)
Stats Elevation 1,417 ft / 432 m (AMSL)
Location 10.149733° -67.928400°
Runways 1
Magnetic Variation 11.743° W

METAR

SVVA 181500Z /////KT 9999 FEW016 29/20 Q1016

Decode

TAF

TAF TAF SVVA 181030Z 1812/1912 09002KT 99999 FEW016 TEMPO 1814/1818 17003KT 9999 SCT020 TX34/19Z TN22/11Z

Decode

Destination Runways

ID Width Length Bearing (true) Bearing (mag) Surface Threshold Offset Overrun Length
10 164 ft / 50 m 9,806 ft / 2,989 m 92.84° 104.58° Asphalt 0 ft / 0 m 0 ft / 0 m
28 164 ft / 50 m 9,806 ft / 2,989 m 272.85° 284.59° Asphalt 0 ft / 0 m 250 ft / 76 m